Latest Weather Observations for Dum In Mirrie

IDD60901

Issued at 8:11 pm CST Tuesday 3 May 2016 (issued every 10 minutes, with the page automatically refreshed every 10 minutes)

About weather observations | Map of Darwin area stations | Latest observations for Darwin area | Other Formats
Station Details ID: 014277 Name: DUM IN MIRRIE AIRSTRIP Lat: -12.63 Lon: 130.37 Height: 3.5 m
Data from the previous 72 hours. | See also: Recent months at Dum In Mirrie
Date/Time
CST
Tmp

°C
App
Tmp
°C
Dew
Point
°C
Rel
Hum
%
Delta-T

°C
Wind Press
QNH
hPa
Press
MSL
hPa
Rain
since
9 am
mm
Dir
 
Spd
km/h
Gust
km/h
Spd
kts
Gust
kts
03/08:00pm 27.0 33.1 25.0 89 1.4 ENE 2 2 1 1 1010.9 1010.9 0.0
03/07:30pm 27.1 32.7 24.9 88 1.5 NE 4 6 2 3 1010.3 1010.3 0.0
03/07:00pm 27.0 32.0 24.5 86 1.7 NE 6 11 3 6 1009.6 1009.6 0.0
03/06:30pm 27.3 32.2 24.4 84 2.0 NE 6 11 3 6 1009.4 1009.4 0.0
03/06:00pm 27.8 32.2 24.4 82 2.4 NE 9 15 5 8 1009.1 1009.1 0.0
03/05:30pm 27.3 31.8 24.6 85 1.9 NE 9 19 5 10 1008.7 1008.7 0.0
03/05:00pm 27.4 31.6 24.1 82 2.3 ENE 9 15 5 8 1008.6 1008.6 0.0
03/04:30pm 27.3 30.0 22.9 77 3.0 ENE 13 19 7 10 1009.5 1009.5 0.0
03/04:00pm 27.0 28.1 23.7 82 2.3 NE 24 43 13 23 1009.6 1009.6 0.0
03/03:40pm 28.0 27.7 22.5 72 3.7 NNE 28 54 15 29 1009.2 1009.2 0.0
03/03:30pm 32.0 35.4 25.3 67 4.7 NNE 17 33 9 18 1008.7 1008.7 0.0
03/03:00pm 31.6 34.1 24.5 66 5.0 NNE 19 30 10 16 1008.8 1008.8 0.0
03/02:30pm 32.2 35.3 24.8 65 5.2 N 17 28 9 15 1008.9 1008.9 0.0
03/02:00pm 32.7 36.4 24.5 62 5.8 N 13 24 7 13 1008.9 1008.9 0.0
03/01:30pm 31.6 36.2 24.7 67 4.9 N 9 17 5 9 1009.4 1009.4 0.0
03/01:00pm 32.8 36.4 23.7 58 6.3 ENE 11 19 6 10 1010.2 1010.2 0.0
03/12:30pm 32.4 37.0 24.2 62 5.7 ENE 7 13 4 7 1010.9 1010.9 0.0
03/12:00pm 32.7 36.8 24.5 62 5.8 E 11 17 6 9 1011.1 1011.1 0.0
03/11:30am 32.2 36.6 24.5 64 5.4 E 9 17 5 9 1011.7 1011.7 0.0
03/11:00am 31.1 35.4 24.2 66 4.8 E 9 15 5 8 1012.2 1012.2 0.0
03/10:30am 30.1 34.0 24.3 71 4.0 ESE 11 17 6 9 1012.3 1012.3 0.0
03/10:00am 28.9 33.3 23.8 74 3.5 SE 7 13 4 7 1012.3 1012.3 0.0
03/09:30am 28.2 32.7 23.6 76 3.2 SE 6 9 3 5 1012.3 1012.3 0.0
03/09:00am 27.9 32.0 23.9 79 2.8 ESE 9 15 5 8 1012.0 1012.0 0.0
03/08:30am 27.4 31.6 24.1 82 2.3 E 9 17 5 9 1011.6 1011.6 0.0
03/08:00am 26.4 30.6 23.5 84 2.0 E 7 13 4 7 1011.3 1011.3 0.0
03/07:30am 25.3 29.4 23.2 88 1.4 ESE 7 13 4 7 1011.3 1011.3 0.0
03/07:00am 24.6 28.4 22.7 89 1.3 ESE 7 11 4 6 1011.3 1011.3 0.0
03/06:30am 24.8 28.6 22.7 88 1.4 SE 7 13 4 7 1010.8 1010.8 0.0
03/06:00am 25.1 29.1 22.8 87 1.6 ESE 6 9 3 5 1010.3 1010.3 0.0
03/05:30am 25.4 29.7 23.3 88 1.4 ESE 6 7 3 4 1010.0 1010.0 0.0
03/05:00am 25.6 30.3 23.3 87 1.6 ESE 4 7 2 4 1009.8 1009.8 0.0
03/04:30am 25.7 30.1 23.4 87 1.6 ESE 6 7 3 4 1009.7 1009.7 0.0
03/04:00am 25.9 29.8 23.0 84 2.0 ESE 7 11 4 6 1009.6 1009.6 0.0
03/03:30am 26.1 29.9 22.8 82 2.2 ESE 7 11 4 6 1009.7 1009.7 0.0
03/03:00am 26.3 29.9 22.4 79 2.6 E 7 11 4 6 1010.0 1010.0 0.0
03/02:30am 26.5 30.3 22.8 80 2.5 ESE 7 13 4 7 1010.2 1010.2 0.0
03/02:00am 27.1 32.4 24.9 88 1.5 ESE 6 11 3 6 1010.5 1010.5 0.0
03/01:30am 27.6 32.6 25.4 88 1.5 ESE 9 15 5 8 1011.1 1011.1 0.0
03/01:00am 28.4 34.1 25.6 85 2.0 ESE 6 9 3 5 1011.7 1011.7 0.0
03/12:30am 28.2 33.9 25.6 86 1.8 E 6 9 3 5 1011.9 1011.9 0.0
03/12:00am 28.1 34.0 25.9 88 1.6 ENE 6 9 3 5 1012.1 1012.1 0.0
 
Date/Time
CST
Tmp

°C
App
Tmp
°C
Dew
Point
°C
Rel
Hum
%
Delta-T

°C
Wind Press
QNH
hPa
Press
MSL
hPa
Rain
since
9 am
mm
Dir
 
Spd
km/h
Gust
km/h
Spd
kts
Gust
kts
02/11:30pm 27.6 34.1 25.6 89 1.4 ENE 2 4 1 2 1012.2 1012.2 0.0
02/11:00pm 27.3 32.9 24.9 87 1.7 NE 4 4 2 2 1012.0 1012.0 0.0
02/10:30pm 27.9 33.9 24.9 84 2.1 ENE 2 4 1 2 1011.8 1011.8 0.0
02/10:00pm 28.4 34.1 25.0 82 2.4 ENE 4 7 2 4 1012.1 1012.1 0.0
02/09:30pm 28.6 33.9 25.0 81 2.5 NE 6 9 3 5 1012.1 1012.1 0.0
02/09:00pm 28.7 34.0 24.9 80 2.7 NE 6 9 3 5 1012.1 1012.1 0.0
02/08:30pm 28.8 34.0 24.8 79 2.8 NE 6 7 3 4 1011.8 1011.8 0.0
02/08:00pm 29.0 34.3 25.0 79 2.8 NE 6 11 3 6 1011.4 1011.4 0.0
02/07:30pm 29.1 34.4 24.9 78 2.9 NE 6 11 3 6 1011.1 1011.1 0.0
02/07:00pm 29.1 34.2 24.7 77 3.1 ENE 6 11 3 6 1010.8 1010.8 0.0
02/06:30pm 29.3 34.1 24.4 75 3.4 ENE 7 13 4 7 1010.3 1010.3 0.0
02/06:00pm 29.6 34.4 24.5 74 3.6 ENE 7 17 4 9 1009.9 1009.9 0.0
02/05:30pm 29.8 34.1 24.2 72 3.9 ENE 9 19 5 10 1009.4 1009.4 0.0
02/05:00pm 30.1 34.4 24.3 71 4.0 ENE 9 19 5 10 1009.2 1009.2 0.0
02/04:30pm 30.3 34.5 24.7 72 3.9 ENE 11 17 6 9 1009.1 1009.1 0.0
02/04:00pm 30.2 34.8 25.3 75 3.5 ENE 11 17 6 9 1008.6 1008.6 0.0
02/03:30pm 30.4 34.4 25.0 73 3.8 ENE 13 22 7 12 1008.7 1008.7 0.0
02/03:00pm 31.1 35.1 25.0 70 4.3 ENE 13 20 7 11 1008.9 1008.9 0.0
02/02:30pm 30.1 32.9 24.3 71 4.0 NE 17 24 9 13 1009.2 1009.2 0.0
02/02:00pm 27.7 30.7 24.7 84 2.1 NE 17 35 9 19 1009.8 1009.8 0.0
02/01:30pm 28.9 31.7 23.6 73 3.7 NE 15 28 8 15 1010.3 1010.3 0.0
02/01:00pm 32.0 35.6 24.3 63 5.4 ENE 13 20 7 11 1010.4 1010.4 0.0
02/12:30pm 31.6 35.7 24.5 66 5.0 E 11 22 6 12 1010.2 1010.2 0.0
02/12:00pm 31.6 35.6 25.0 68 4.7 E 13 20 7 11 1010.8 1010.8 0.0
02/11:30am 31.0 34.3 23.9 66 4.9 E 13 24 7 13 1011.4 1011.4 0.0
02/11:00am 31.1 35.3 24.7 68 4.5 E 11 20 6 11 1011.6 1011.6 0.0
02/10:30am 30.4 33.6 24.3 70 4.3 E 15 24 8 13 1011.8 1011.8 0.0
02/10:00am 30.0 34.0 24.4 72 3.9 E 11 17 6 9 1011.7 1011.7 0.0
02/09:30am 29.5 34.4 24.6 75 3.4 E 7 13 4 7 1011.6 1011.6 0.0
02/09:00am 28.6 33.6 24.8 80 2.7 E 7 13 4 7 1011.6 1011.6 2.0
02/08:30am 27.8 32.2 24.4 82 2.4 E 9 13 5 7 1011.2 1011.2 2.0
02/08:00am 27.1 32.0 24.6 86 1.7 ESE 7 9 4 5 1011.0 1011.0 2.0
02/07:30am 26.4 31.3 24.4 89 1.4 ESE 6 7 3 4 1010.8 1010.8 2.0
02/07:00am 26.5 31.4 24.3 88 1.5 ESE 6 9 3 5 1010.6 1010.6 2.0
02/06:30am 26.6 31.5 24.4 88 1.5 ESE 6 9 3 5 1010.3 1010.3 2.0
02/06:00am 26.5 31.7 24.2 87 1.6 E 4 7 2 4 1009.9 1009.9 2.0
02/05:30am 26.5 31.3 24.2 87 1.6 E 6 7 3 4 1009.6 1009.6 2.0
02/05:00am 26.6 31.7 24.1 86 1.7 E 4 7 2 4 1009.6 1009.6 2.0
02/04:30am 26.6 31.3 23.9 85 1.9 E 6 7 3 4 1009.1 1009.1 2.0
02/04:00am 26.7 31.4 24.0 85 1.9 E 6 7 3 4 1009.2 1009.2 2.0
02/03:30am 27.0 32.1 24.1 84 2.0 E 4 6 2 3 1009.4 1009.4 2.0
02/03:00am 27.1 31.8 24.0 83 2.1 E 6 9 3 5 1009.2 1009.2 2.0
02/02:30am 27.0 32.5 24.6 87 1.7 E 4 6 2 3 1009.3 1009.3 2.0
02/02:00am 26.9 31.7 24.2 85 1.9 E 6 9 3 5 1009.4 1009.4 2.0
02/01:30am 27.1 32.6 24.6 86 1.7 ESE 4 7 2 4 1009.7 1009.7 2.0
02/01:00am 27.1 32.2 24.7 87 1.7 SE 6 9 3 5 1009.9 1009.9 2.0
02/12:30am 27.1 32.9 25.1 89 1.4 ESE 4 7 2 4 1010.7 1010.7 2.0
02/12:00am 27.1 32.2 24.9 88 1.5 E 7 11 4 6 1010.9 1010.9 2.0
 
Date/Time
CST
Tmp

°C
App
Tmp
°C
Dew
Point
°C
Rel
Hum
%
Delta-T

°C
Wind Press
QNH
hPa
Press
MSL
hPa
Rain
since
9 am
mm
Dir
 
Spd
km/h
Gust
km/h
Spd
kts
Gust
kts
01/11:30pm 27.2 32.5 25.8 92 1.0 ESE 9 13 5 7 1011.2 1011.2 2.0
01/11:00pm 27.5 31.6 24.6 84 2.0 E 11 28 6 15 1011.4 1011.4 2.0
01/10:30pm 28.8 35.0 25.8 84 2.1 ESE 4 6 2 3 1011.1 1011.1 0.0
01/10:00pm 28.8 34.7 25.4 82 2.4 NE 4 4 2 2 1010.9 1010.9 0.0
01/09:30pm 27.8 34.3 25.0 85 2.0 CALM 0 6 0 3 1011.2 1011.2 0.0
01/09:00pm 28.4 34.7 24.8 81 2.5 CALM 0 0 0 0 1011.1 1011.1 0.0
01/08:30pm 29.1 35.1 24.9 78 2.9 NE 2 6 1 3 1010.4 1010.4 0.0
01/08:00pm 29.6 35.2 24.9 76 3.3 NE 4 7 2 4 1010.0 1010.0 0.0
01/07:30pm 29.7 35.2 24.6 74 3.6 NE 4 9 2 5 1009.5 1009.5 0.0
01/07:00pm 29.9 34.7 24.5 73 3.8 NNE 7 13 4 7 1009.3 1009.3 0.0
01/06:30pm 30.4 35.0 24.8 72 3.9 NE 9 15 5 8 1009.3 1009.3 0.0
01/06:00pm 30.7 34.7 24.4 69 4.4 NNE 11 17 6 9 1008.9 1008.9 0.0
01/05:30pm 31.1 35.2 24.5 68 4.6 NNE 11 20 6 11 1008.3 1008.3 0.0
01/05:00pm 31.7 35.8 24.6 66 5.0 NNE 11 20 6 11 1008.1 1008.1 0.0
01/04:30pm 32.0 35.9 24.3 63 5.4 N 11 20 6 11 1008.0 1008.0 0.0
01/04:00pm 32.2 36.3 24.5 64 5.4 N 11 19 6 10 1008.2 1008.2 0.0
01/03:30pm 31.9 35.4 24.2 63 5.4 N 13 20 7 11 1008.1 1008.1 0.0
01/03:00pm 32.4 36.0 24.4 62 5.6 N 13 20 7 11 1008.4 1008.4 0.0
01/02:30pm 32.7 36.8 24.5 62 5.8 NNW 11 17 6 9 1008.9 1008.9 0.0
01/02:00pm 33.2 37.7 25.2 63 5.7 N 11 17 6 9 1009.2 1009.2 0.0
01/01:30pm 33.5 37.7 24.1 58 6.6 NE 9 19 5 10 1009.3 1009.3 0.0
01/01:00pm 33.5 37.7 23.5 55 6.9 NNE 7 15 4 8 1009.8 1009.8 0.0
01/12:30pm 32.8 37.1 24.3 61 6.0 NNE 9 15 5 8 1010.4 1010.4 0.0
01/12:00pm 33.2 37.2 23.8 57 6.6 NE 9 13 5 7 1010.9 1010.9 0.0
01/11:30am 32.9 37.7 24.4 61 6.0 ENE 7 13 4 7 1011.0 1011.0 0.0
01/11:00am 32.1 37.0 24.7 65 5.2 E 7 13 4 7 1011.3 1011.3 0.0
01/10:30am 31.1 35.6 24.0 66 4.9 ENE 7 9 4 5 1011.5 1011.5 0.0
01/10:00am 30.5 36.0 25.6 75 3.5 ENE 7 9 4 5 1011.7 1011.7 0.0
01/09:30am 30.0 35.8 26.0 79 2.8 E 7 11 4 6 1011.7 1011.7 0.0
01/09:00am 28.3 35.1 26.7 91 1.1 E 4 6 2 3 1011.8 1011.8 1.2
01/08:30am 27.7 35.3 26.8 95 0.6 CALM 0 4 0 2 1011.8 1011.8 1.2
01/08:00am 27.2 33.9 26.5 96 0.5 E 4 4 2 2 1011.5 1011.5 1.2
01/07:30am 27.0 33.7 26.5 97 0.4 E 4 6 2 3 1011.0 1011.0 1.2
01/07:00am 26.6 33.0 26.1 97 0.4 ENE 4 7 2 4 1010.9 1010.9 1.0
01/06:30am 26.6 32.5 25.9 96 0.5 E 6 6 3 3 1010.3 1010.3 0.8
01/06:00am 26.6 32.7 25.6 94 0.7 NE 4 6 2 3 1010.3 1010.3 0.4
01/05:30am 26.9 32.4 25.3 91 1.1 NE 6 11 3 6 1010.2 1010.2 0.0
01/05:00am 27.1 32.4 25.3 90 1.3 ENE 7 13 4 7 1010.3 1010.3 0.0
01/04:30am 27.4 32.1 25.0 87 1.7 ENE 9 13 5 7 1010.1 1010.1 0.0
01/04:00am 27.6 31.6 25.0 86 1.8 E 13 22 7 12 1010.2 1010.2 0.0
01/03:30am 27.9 33.7 25.1 85 2.0 ESE 4 6 2 3 1009.5 1009.5 0.0
01/03:00am 28.1 34.2 25.1 84 2.1 SE 2 7 1 4 1009.4 1009.4 0.0
01/02:30am 28.3 34.4 25.1 83 2.2 SSE 2 7 1 4 1009.9 1009.9 0.0
01/02:00am 28.6 34.5 25.4 83 2.3 SSE 4 7 2 4 1010.2 1010.2 0.0
01/01:30am 28.6 34.7 25.6 84 2.1 SSE 4 7 2 4 1010.1 1010.1 0.0
01/01:00am 29.5 35.5 25.5 79 2.8 SSW 4 7 2 4 1009.9 1009.9 0.0
01/12:30am 29.7 34.8 24.6 74 3.6 SW 6 9 3 5 1010.4 1010.4 0.0
01/12:00am 29.8 35.1 24.4 73 3.8 SW 4 6 2 3 1010.6 1010.6 0.0
 
Date/Time
CST
Tmp

°C
App
Tmp
°C
Dew
Point
°C
Rel
Hum
%
Delta-T

°C
Wind Press
QNH
hPa
Press
MSL
hPa
Rain
since
9 am
mm
Dir
 
Spd
km/h
Gust
km/h
Spd
kts
Gust
kts
30/11:30pm 29.9 35.6 25.0 75 3.4 WSW 4 9 2 5 1010.4 1010.4 0.0
30/11:00pm 30.0 35.1 24.6 73 3.8 SW 6 11 3 6 1010.5 1010.5 0.0
30/10:30pm 29.9 34.7 24.5 73 3.8 W 7 13 4 7 1010.4 1010.4 0.0
30/10:00pm 30.1 35.2 24.7 73 3.8 W 6 13 3 7 1010.7 1010.7 0.0
30/09:30pm 30.1 34.9 24.5 72 3.9 WSW 7 15 4 8 1010.6 1010.6 0.0
30/09:00pm 30.1 35.2 24.7 73 3.8 WSW 6 13 3 7 1010.5 1010.5 0.0
30/08:30pm 30.0 34.8 24.4 72 3.9 W 7 13 4 7 1010.2 1010.2 0.0

Latest Capital City Observations: Canberra | Sydney | Melbourne | Brisbane | Adelaide | Perth | Hobart | Darwin

Other Formats:

Comma delimited format used in spreadsheet applications
http://www.bom.gov.au/fwo/IDD60901/IDD60901.94116.axf

JavaScript Object Notation format (JSON) in row-major order
http://www.bom.gov.au/fwo/IDD60901/IDD60901.94116.json